createdAt,value
2023-09-20T00:00:08.272Z,2.47
2023-09-20T00:02:09.892Z,2.30
2023-09-20T00:04:11.473Z,2.35
2023-09-20T00:06:14.376Z,2.15
2023-09-20T00:08:15.966Z,1.88
2023-09-20T00:10:18.020Z,2.00
2023-09-20T00:12:19.515Z,2.05
2023-09-20T00:14:21.090Z,1.77
2023-09-20T00:16:22.713Z,2.35
2023-09-20T00:18:25.309Z,2.20
2023-09-20T00:20:26.891Z,1.88
2023-09-20T00:22:29.733Z,2.63
2023-09-20T00:24:31.229Z,2.20
2023-09-20T00:26:33.152Z,2.20
2023-09-20T00:28:34.707Z,2.63
2023-09-20T00:30:36.197Z,1.95
2023-09-20T00:32:38.923Z,2.03
2023-09-20T00:34:40.628Z,1.92
2023-09-20T00:36:42.129Z,2.00
2023-09-20T00:38:45.046Z,1.90
2023-09-20T00:40:46.564Z,2.17
2023-09-20T00:42:49.942Z,1.77
2023-09-20T00:44:51.455Z,2.00
2023-09-20T00:46:53.450Z,2.03
2023-09-20T00:48:55.312Z,2.03
2023-09-20T00:50:57.685Z,2.25
2023-09-20T00:52:59.942Z,1.98
2023-09-20T00:55:02.826Z,2.00
2023-09-20T00:57:04.749Z,2.25
2023-09-20T00:59:06.398Z,1.98
2023-09-20T01:01:08.016Z,1.85
2023-09-20T01:03:10.389Z,1.92
2023-09-20T01:05:12.130Z,1.92
2023-09-20T01:07:13.756Z,2.42
2023-09-20T01:09:15.261Z,1.98
2023-09-20T01:11:18.202Z,1.80
2023-09-20T01:13:19.842Z,1.75
2023-09-20T01:15:21.627Z,2.10
2023-09-20T01:17:23.235Z,2.20
2023-09-20T01:19:24.864Z,1.83
2023-09-20T01:21:26.387Z,2.05
2023-09-20T01:23:29.290Z,2.00
2023-09-20T01:25:32.549Z,2.15
2023-09-20T01:27:34.836Z,2.00
2023-09-20T01:29:36.363Z,2.20
2023-09-20T01:31:38.018Z,2.15
2023-09-20T01:33:39.692Z,1.80
2023-09-20T01:35:41.238Z,2.00
2023-09-20T01:37:42.826Z,2.38
2023-09-20T01:39:45.706Z,1.75
2023-09-20T01:41:47.208Z,1.85
2023-09-20T01:43:48.765Z,2.00
2023-09-20T01:45:50.286Z,2.10
2023-09-20T01:47:53.147Z,2.10
2023-09-20T01:49:54.843Z,2.00
2023-09-20T01:51:56.424Z,1.77
2023-09-20T01:53:57.916Z,2.38
2023-09-20T01:56:00.814Z,1.90
2023-09-20T01:58:02.332Z,2.05
2023-09-20T02:00:04.910Z,1.98
2023-09-20T02:02:06.427Z,1.70
2023-09-20T02:04:08.071Z,2.03
2023-09-20T02:06:09.576Z,1.80
2023-09-20T02:08:11.305Z,1.90
2023-09-20T02:10:13.155Z,2.00
2023-09-20T02:12:15.992Z,1.80
2023-09-20T02:14:17.546Z,1.77
2023-09-20T02:16:19.100Z,2.25
2023-09-20T02:18:20.681Z,2.10
2023-09-20T02:20:23.782Z,1.90
2023-09-20T02:22:25.322Z,2.25
2023-09-20T02:24:26.840Z,1.95
2023-09-20T02:26:28.402Z,2.03
2023-09-20T02:28:32.424Z,1.90
2023-09-20T02:30:34.186Z,2.38
2023-09-20T02:32:36.184Z,1.90
2023-09-20T02:34:37.792Z,2.20
2023-09-20T02:36:39.292Z,2.40
2023-09-20T02:38:41.013Z,2.55
2023-09-20T02:40:42.802Z,1.90
2023-09-20T02:42:45.742Z,2.35
2023-09-20T02:44:48.685Z,2.00
2023-09-20T02:46:50.196Z,2.15
2023-09-20T02:48:51.726Z,2.70
2023-09-20T02:50:53.352Z,2.60
2023-09-20T02:52:54.868Z,2.13
2023-09-20T02:54:56.381Z,1.83
2023-09-20T02:56:57.993Z,2.13
2023-09-20T02:58:59.519Z,2.03
2023-09-20T03:01:02.404Z,1.83
2023-09-20T03:03:04.777Z,2.60
2023-09-20T03:05:07.027Z,2.22
2023-09-20T03:07:08.601Z,2.33
2023-09-20T03:09:10.115Z,2.33
2023-09-20T03:11:11.659Z,2.67
2023-09-20T03:13:13.948Z,2.55
2023-09-20T03:15:16.942Z,2.28
2023-09-20T03:17:19.865Z,2.03
2023-09-20T03:19:21.412Z,2.20
2023-09-20T03:21:23.018Z,2.15
2023-09-20T03:23:24.538Z,2.25
2023-09-20T03:25:26.868Z,2.38
2023-09-20T03:27:28.370Z,2.53
2023-09-20T03:29:29.966Z,2.50
2023-09-20T03:31:31.980Z,2.10
2023-09-20T03:33:34.977Z,2.17
2023-09-20T03:35:36.566Z,2.00
2023-09-20T03:37:38.204Z,1.98
2023-09-20T03:39:39.717Z,2.25
2023-09-20T03:41:41.240Z,3.35
2023-09-20T03:43:42.807Z,2.20
2023-09-20T03:45:44.301Z,2.17
2023-09-20T03:47:47.517Z,2.45
2023-09-20T03:49:52.698Z,1.95
2023-09-20T03:51:54.207Z,2.80
2023-09-20T03:53:55.789Z,1.98
2023-09-20T03:55:57.310Z,2.13
2023-09-20T03:57:58.789Z,2.10
2023-09-20T04:00:00.408Z,2.50
2023-09-20T04:02:01.927Z,2.05
2023-09-20T04:04:03.578Z,2.15
2023-09-20T04:06:06.553Z,2.28
2023-09-20T04:08:08.119Z,2.00
2023-09-20T04:10:10.239Z,1.98
2023-09-20T04:12:12.182Z,1.65
2023-09-20T04:14:13.800Z,2.08
2023-09-20T04:16:15.382Z,1.70
2023-09-20T04:18:17.189Z,1.92
2023-09-20T04:20:19.496Z,1.80
2023-09-20T04:22:22.456Z,2.25
2023-09-20T04:24:23.991Z,1.85
2023-09-20T04:26:25.556Z,1.88
2023-09-20T04:28:27.091Z,2.40
2023-09-20T04:30:28.681Z,1.90
2023-09-20T04:32:30.544Z,2.20
2023-09-20T04:34:32.105Z,2.25
2023-09-20T04:36:33.617Z,1.98
2023-09-20T04:38:36.545Z,2.10
2023-09-20T04:40:38.242Z,1.83
2023-09-20T04:42:39.822Z,2.15
2023-09-20T04:44:41.387Z,2.00
2023-09-20T04:46:42.967Z,2.33
2023-09-20T04:48:44.590Z,1.90
2023-09-20T04:50:49.790Z,2.10
2023-09-20T04:52:51.290Z,1.90
2023-09-20T04:54:55.278Z,2.10
2023-09-20T04:56:56.832Z,1.90
2023-09-20T04:58:58.324Z,2.28
2023-09-20T05:00:59.909Z,2.33
2023-09-20T05:03:01.735Z,2.35
2023-09-20T05:05:03.748Z,1.90
2023-09-20T05:07:05.291Z,2.13
2023-09-20T05:09:06.778Z,1.98
2023-09-20T05:11:09.862Z,2.05
2023-09-20T05:13:11.836Z,1.90
2023-09-20T05:15:13.405Z,1.95
2023-09-20T05:17:14.968Z,2.13
2023-09-20T05:19:16.504Z,2.45
2023-09-20T05:21:18.016Z,2.28
2023-09-20T05:23:19.579Z,2.28
2023-09-20T05:25:21.113Z,2.75
2023-09-20T05:27:24.012Z,2.17
2023-09-20T05:29:25.637Z,2.28
2023-09-20T05:31:27.284Z,2.45
2023-09-20T05:33:28.847Z,2.65
2023-09-20T05:35:30.464Z,2.20
2023-09-20T05:37:32.018Z,2.17
2023-09-20T05:39:33.715Z,2.03
2023-09-20T05:41:35.339Z,2.05
2023-09-20T05:43:38.325Z,1.83
2023-09-20T05:45:39.866Z,2.10
2023-09-20T05:47:41.779Z,2.22
2023-09-20T05:49:43.315Z,1.90
2023-09-20T05:51:44.835Z,2.40
2023-09-20T05:53:46.384Z,2.33
2023-09-20T05:55:47.901Z,3.35
2023-09-20T05:57:49.409Z,3.28
2023-09-20T05:59:52.486Z,2.50
2023-09-20T06:01:54.074Z,2.10
2023-09-20T06:03:55.632Z,2.47
2023-09-20T06:05:57.247Z,2.00
2023-09-20T06:07:58.767Z,2.10
2023-09-20T06:10:00.270Z,2.40
2023-09-20T06:12:01.794Z,2.83
2023-09-20T06:14:03.474Z,2.50
2023-09-20T06:16:07.933Z,2.50
2023-09-20T06:18:09.437Z,1.73
2023-09-20T06:20:11.764Z,1.90
2023-09-20T06:22:13.265Z,2.60
2023-09-20T06:24:14.754Z,1.98
2023-09-20T06:26:16.329Z,2.10
2023-09-20T06:28:17.847Z,2.20
2023-09-20T06:30:19.599Z,2.10
2023-09-20T06:32:22.545Z,1.92
2023-09-20T06:34:24.111Z,2.17
2023-09-20T06:36:25.648Z,2.00
2023-09-20T06:38:27.160Z,2.15
2023-09-20T06:40:28.692Z,2.58
2023-09-20T06:42:30.462Z,2.67
2023-09-20T06:44:33.908Z,2.03
2023-09-20T06:46:35.437Z,2.05
2023-09-20T06:48:38.836Z,2.10
2023-09-20T06:50:40.494Z,2.72
2023-09-20T06:52:42.393Z,2.00
2023-09-20T06:54:43.891Z,2.38
2023-09-20T06:56:45.435Z,2.10
2023-09-20T06:58:47.047Z,2.10
2023-09-20T07:00:49.427Z,2.00
2023-09-20T07:02:51.077Z,1.95
2023-09-20T07:04:53.988Z,2.35
2023-09-20T07:06:56.171Z,2.15
2023-09-20T07:08:57.665Z,2.22
2023-09-20T07:10:59.171Z,2.55
2023-09-20T07:13:00.949Z,1.88
2023-09-20T07:15:02.667Z,1.85
2023-09-20T07:17:04.555Z,1.88
2023-09-20T07:19:07.141Z,2.10
2023-09-20T07:21:10.022Z,1.98
2023-09-20T07:23:11.822Z,2.47
2023-09-20T07:25:13.479Z,2.10
2023-09-20T07:27:15.000Z,1.75
2023-09-20T07:29:16.660Z,1.90
2023-09-20T07:31:18.290Z,1.95
2023-09-20T07:33:19.964Z,2.05
2023-09-20T07:35:21.655Z,2.00
2023-09-20T07:37:24.679Z,1.88
2023-09-20T07:39:26.252Z,1.80
2023-09-20T07:41:27.980Z,1.75
2023-09-20T07:43:29.944Z,1.90
2023-09-20T07:45:34.939Z,1.95
2023-09-20T07:47:36.730Z,2.30
2023-09-20T07:49:38.499Z,1.80
2023-09-20T07:51:40.730Z,2.10
2023-09-20T07:53:43.785Z,1.92
2023-09-20T07:55:58.042Z,1.83
2023-09-20T07:57:59.580Z,1.90
2023-09-20T08:00:01.112Z,1.80
2023-09-20T08:02:02.709Z,1.70
2023-09-20T08:04:04.824Z,2.08
2023-09-20T08:06:06.663Z,1.83
2023-09-20T08:08:09.302Z,2.00
2023-09-20T08:10:12.185Z,2.10
2023-09-20T08:12:13.700Z,1.85
2023-09-20T08:14:15.218Z,1.70
2023-09-20T08:16:17.087Z,1.70
2023-09-20T08:18:18.979Z,2.05
2023-09-20T08:20:20.623Z,1.80
2023-09-20T08:22:22.329Z,1.88
2023-09-20T08:24:23.988Z,2.10
2023-09-20T08:26:26.916Z,1.85
2023-09-20T08:28:28.445Z,2.03
2023-09-20T08:30:30.049Z,1.70
2023-09-20T08:32:31.742Z,1.80
2023-09-20T08:34:33.321Z,1.95
2023-09-20T08:36:34.810Z,1.98
2023-09-20T08:38:36.408Z,2.05
2023-09-20T08:40:38.272Z,1.80
2023-09-20T08:42:41.415Z,2.22
2023-09-20T08:44:48.740Z,1.73
2023-09-20T08:46:52.204Z,2.00
2023-09-20T08:50:56.315Z,1.80
2023-09-20T08:52:58.434Z,1.83
2023-09-20T08:55:00.342Z,2.00
2023-09-20T08:57:02.474Z,2.00
2023-09-20T08:59:05.885Z,2.22
2023-09-20T09:01:10.392Z,1.92
2023-09-20T09:03:12.191Z,1.73
2023-09-20T09:05:14.455Z,2.13
2023-09-20T09:07:16.487Z,2.03
2023-09-20T09:09:18.174Z,1.77
2023-09-20T09:11:19.937Z,2.50
2023-09-20T09:13:21.962Z,2.00
2023-09-20T09:15:26.139Z,1.90
2023-09-20T09:17:27.943Z,1.90
2023-09-20T09:19:29.635Z,2.13
2023-09-20T09:21:31.301Z,2.03
2023-09-20T09:23:34.033Z,1.70
2023-09-20T09:25:35.528Z,2.28
2023-09-20T09:27:37.065Z,1.73
2023-09-20T09:29:38.757Z,1.88
2023-09-20T09:31:41.750Z,1.92
2023-09-20T09:33:43.527Z,1.98
2023-09-20T09:35:48.389Z,2.08
2023-09-20T09:37:51.389Z,2.00
2023-09-20T09:39:59.835Z,1.80
2023-09-20T09:42:01.336Z,1.73
2023-09-20T09:44:02.844Z,2.25
2023-09-20T09:46:06.379Z,1.90
2023-09-20T09:48:09.647Z,1.80
2023-09-20T09:50:11.984Z,1.88
2023-09-20T09:52:14.274Z,2.03
2023-09-20T09:54:16.661Z,2.10
2023-09-20T09:56:18.836Z,2.08
2023-09-20T09:58:20.398Z,1.90
2023-09-20T10:00:22.072Z,2.03
2023-09-20T10:02:26.770Z,1.80
2023-09-20T10:04:32.548Z,2.13
2023-09-20T10:06:35.820Z,2.00
2023-09-20T10:08:39.488Z,2.00
2023-09-20T10:10:41.156Z,2.13
2023-09-20T10:12:44.543Z,2.25
2023-09-20T10:16:49.329Z,2.10
2023-09-20T10:19:00.681Z,2.03
2023-09-20T10:21:06.983Z,2.10
2023-09-20T10:23:08.558Z,2.30
2023-09-20T10:25:29.371Z,2.13
2023-09-20T10:27:32.719Z,2.00
2023-09-20T10:31:39.935Z,2.17
2023-09-20T10:33:43.864Z,2.55
2023-09-20T10:35:46.913Z,2.53
2023-09-20T10:38:03.781Z,2.10
2023-09-20T10:40:07.752Z,1.92
2023-09-20T10:42:13.199Z,3.00
2023-09-20T10:44:30.464Z,2.08
2023-09-20T10:46:36.152Z,2.00
2023-09-20T10:48:41.871Z,2.28
2023-09-20T10:50:46.829Z,2.22
2023-09-20T10:52:55.267Z,2.00
2023-09-20T10:55:29.240Z,2.40
2023-09-20T10:57:32.285Z,1.80
2023-09-20T10:59:34.457Z,2.33
2023-09-20T11:01:36.382Z,2.65
2023-09-20T11:03:37.985Z,2.50
2023-09-20T11:05:40.427Z,2.42
2023-09-20T11:07:42.848Z,2.28
2023-09-20T11:09:48.308Z,2.70
2023-09-20T11:11:49.955Z,2.00
2023-09-20T11:13:52.870Z,1.90
2023-09-20T11:15:56.164Z,2.22
2023-09-20T11:17:57.740Z,2.30
2023-09-20T11:19:59.303Z,2.13
2023-09-20T11:22:01.182Z,2.00
2023-09-20T11:24:02.902Z,2.28
2023-09-20T11:26:04.834Z,2.13
2023-09-20T11:28:07.379Z,2.38
2023-09-20T11:30:11.002Z,3.55
2023-09-20T11:32:12.783Z,2.58
2023-09-20T11:34:14.479Z,2.30
2023-09-20T11:36:16.711Z,2.40
2023-09-20T11:38:18.614Z,2.67
2023-09-20T11:40:20.253Z,2.40
2023-09-20T11:42:25.806Z,3.17
2023-09-20T11:44:27.320Z,2.42
2023-09-20T11:46:32.147Z,2.70
2023-09-20T11:48:33.773Z,2.15
2023-09-20T11:50:35.545Z,2.30
2023-09-20T11:52:37.108Z,2.90
2023-09-20T11:54:39.271Z,2.30
2023-09-20T11:56:40.827Z,2.45
2023-09-20T11:58:43.269Z,2.22
2023-09-20T12:00:45.837Z,2.30
2023-09-20T12:02:49.471Z,2.05
2023-09-20T12:04:51.728Z,2.10
2023-09-20T12:06:53.246Z,1.98
2023-09-20T12:08:54.840Z,1.95
2023-09-20T12:10:56.498Z,1.95
2023-09-20T12:12:58.362Z,2.30
2023-09-20T12:14:59.910Z,2.30
2023-09-20T12:17:01.566Z,2.03
2023-09-20T12:19:04.527Z,2.13
2023-09-20T12:21:06.900Z,2.15
2023-09-20T12:23:08.439Z,2.35
2023-09-20T12:25:10.379Z,2.10
2023-09-20T12:27:11.891Z,2.30
2023-09-20T12:29:13.436Z,2.55
2023-09-20T12:31:15.008Z,2.05
2023-09-20T12:33:16.700Z,1.90
2023-09-20T12:35:19.784Z,2.38
2023-09-20T12:37:21.354Z,2.13
2023-09-20T12:39:22.872Z,2.45
2023-09-20T12:41:24.764Z,2.30
2023-09-20T12:43:26.365Z,2.50
2023-09-20T12:45:27.946Z,2.30
2023-09-20T12:47:29.499Z,2.25
2023-09-20T12:49:31.087Z,2.25
2023-09-20T12:51:33.997Z,2.22
2023-09-20T12:53:35.570Z,2.35
2023-09-20T12:55:38.583Z,2.33
2023-09-20T12:57:40.374Z,2.38
2023-09-20T12:59:41.940Z,2.33
2023-09-20T13:01:43.554Z,2.63
2023-09-20T13:03:45.821Z,2.42
2023-09-20T13:05:48.483Z,2.22
2023-09-20T13:07:51.360Z,2.17
2023-09-20T13:09:53.084Z,2.40
2023-09-20T13:11:54.730Z,2.13
2023-09-20T13:13:56.314Z,2.03
2023-09-20T13:15:58.297Z,2.20
2023-09-20T13:17:59.984Z,2.13
2023-09-20T13:20:01.559Z,1.83
2023-09-20T13:22:03.112Z,2.08
2023-09-20T13:24:06.619Z,2.13
2023-09-20T13:26:08.133Z,2.08
2023-09-20T13:28:09.880Z,2.22
2023-09-20T13:30:12.382Z,1.80
2023-09-20T13:32:13.863Z,1.63
2023-09-20T13:34:15.444Z,2.13
2023-09-20T13:36:17.138Z,1.85
2023-09-20T13:38:18.688Z,2.22
2023-09-20T13:40:21.818Z,1.90
2023-09-20T13:44:24.840Z,1.67
2023-09-20T13:46:26.399Z,1.85
2023-09-20T13:48:28.057Z,2.45
2023-09-20T13:50:29.820Z,2.00
2023-09-20T13:52:31.472Z,2.28
2023-09-20T13:54:32.985Z,1.80
2023-09-20T13:56:35.908Z,2.38
2023-09-20T13:58:37.452Z,1.80
2023-09-20T14:00:39.015Z,2.05
2023-09-20T14:02:41.248Z,2.00
2023-09-20T14:04:42.988Z,1.92
2023-09-20T14:06:44.530Z,1.70
2023-09-20T14:08:46.084Z,1.70
2023-09-20T14:10:47.616Z,2.53
2023-09-20T14:12:51.450Z,1.98
2023-09-20T14:14:53.042Z,2.50
2023-09-20T14:16:54.609Z,1.60
2023-09-20T14:18:56.118Z,1.80
2023-09-20T14:21:01.998Z,2.08
2023-09-20T14:23:03.767Z,1.80
2023-09-20T14:25:06.033Z,1.80
2023-09-20T14:27:09.630Z,1.65
2023-09-20T14:29:12.515Z,1.45
2023-09-20T14:31:14.812Z,1.35
2023-09-20T14:33:16.470Z,1.50
2023-09-20T14:35:18.471Z,1.40
2023-09-20T14:37:20.150Z,1.40
2023-09-20T14:39:21.681Z,1.58
2023-09-20T14:41:23.285Z,1.90
2023-09-20T14:43:24.800Z,3.88
2023-09-20T14:45:29.299Z,2.45
2023-09-20T14:47:30.874Z,2.05
2023-09-20T14:49:32.408Z,1.63
2023-09-20T14:51:33.976Z,1.85
2023-09-20T14:53:35.510Z,2.00
2023-09-20T14:55:37.069Z,2.22
2023-09-20T14:57:38.833Z,2.15
2023-09-20T14:59:40.334Z,1.88
2023-09-20T15:01:43.243Z,1.60
2023-09-20T15:03:45.277Z,1.83
2023-09-20T15:05:47.079Z,1.85
2023-09-20T15:07:49.788Z,1.80
2023-09-20T15:09:51.376Z,1.80
2023-09-20T15:11:52.912Z,1.75
2023-09-20T15:13:54.451Z,1.60
2023-09-20T15:15:55.961Z,1.65
2023-09-20T15:17:59.807Z,1.63
2023-09-20T15:20:01.860Z,2.10
2023-09-20T15:22:05.341Z,1.80
2023-09-20T15:24:08.309Z,1.83
2023-09-20T15:26:10.876Z,2.03
2023-09-20T15:28:12.378Z,1.70
2023-09-20T15:30:14.541Z,2.08
2023-09-20T15:32:16.760Z,1.52
2023-09-20T15:34:19.664Z,1.70
2023-09-20T15:36:21.166Z,1.75
2023-09-20T15:38:22.717Z,1.90
2023-09-20T15:40:24.326Z,1.85
2023-09-20T15:42:25.810Z,1.98
2023-09-20T15:44:27.359Z,2.00
2023-09-20T15:46:28.881Z,1.40
2023-09-20T15:48:30.960Z,1.60
2023-09-20T15:50:33.882Z,1.98
2023-09-20T15:52:35.490Z,1.50
2023-09-20T15:54:37.108Z,1.83
2023-09-20T15:56:38.652Z,1.30
2023-09-20T15:58:40.242Z,1.75
2023-09-20T16:00:41.749Z,2.00
2023-09-20T16:02:43.819Z,1.73
2023-09-20T16:04:45.758Z,2.13
2023-09-20T16:06:48.752Z,1.40
2023-09-20T16:08:50.320Z,1.80
2023-09-20T16:10:51.838Z,1.75
2023-09-20T16:12:53.449Z,1.60
2023-09-20T16:14:55.283Z,1.63
2023-09-20T16:16:56.814Z,1.52
2023-09-20T16:18:58.648Z,1.45
2023-09-20T16:21:00.249Z,2.00
2023-09-20T16:23:04.324Z,2.38
2023-09-20T16:25:06.452Z,1.70
2023-09-20T16:27:08.072Z,1.73
2023-09-20T16:29:09.688Z,1.40
2023-09-20T16:31:12.575Z,1.60
2023-09-20T16:33:14.277Z,1.38
2023-09-20T16:35:16.895Z,1.63
2023-09-20T16:37:18.984Z,1.40
2023-09-20T16:39:21.847Z,1.70
2023-09-20T16:41:23.404Z,2.13
2023-09-20T16:43:25.071Z,2.20
2023-09-20T16:45:26.631Z,1.85
2023-09-20T16:47:28.186Z,1.85
2023-09-20T16:49:29.743Z,1.55
2023-09-20T16:51:31.348Z,2.13
2023-09-20T16:53:34.532Z,1.70
2023-09-20T16:57:39.505Z,1.50
2023-09-20T16:59:41.121Z,1.80
2023-09-20T17:01:42.678Z,1.83
2023-09-20T17:03:44.278Z,1.50
2023-09-20T17:05:46.135Z,1.52
2023-09-20T17:07:47.738Z,2.00
2023-09-20T17:09:49.259Z,1.80
2023-09-20T17:11:52.167Z,1.65
2023-09-20T17:13:53.664Z,2.65
2023-09-20T17:15:55.173Z,1.60
2023-09-20T17:17:56.768Z,1.67
2023-09-20T17:19:58.491Z,1.83
2023-09-20T17:22:00.031Z,1.60
2023-09-20T17:24:01.613Z,1.42
2023-09-20T17:26:03.149Z,1.70
2023-09-20T17:28:06.855Z,1.85
2023-09-20T17:30:09.258Z,2.28
2023-09-20T17:32:10.807Z,1.85
2023-09-20T17:34:12.694Z,1.80
2023-09-20T17:36:14.383Z,1.73
2023-09-20T17:38:16.260Z,1.73
2023-09-20T17:40:17.937Z,2.05
2023-09-20T17:42:19.531Z,2.00
2023-09-20T17:44:22.412Z,2.42
2023-09-20T17:46:24.066Z,2.20
2023-09-20T17:48:25.675Z,2.42
2023-09-20T17:50:27.278Z,2.85
2023-09-20T17:52:28.825Z,2.40
2023-09-20T17:54:30.332Z,2.67
2023-09-20T17:56:31.928Z,2.58
2023-09-20T17:58:33.649Z,2.83
2023-09-20T18:00:36.586Z,2.47
2023-09-20T18:02:38.625Z,2.38
2023-09-20T18:04:40.304Z,2.38
2023-09-20T18:06:41.946Z,2.13
2023-09-20T18:08:44.450Z,2.20
2023-09-20T18:10:46.104Z,3.05
2023-09-20T18:12:47.648Z,2.20
2023-09-20T18:14:49.214Z,2.95
2023-09-20T18:16:52.141Z,2.58
2023-09-20T18:18:53.829Z,2.97
2023-09-20T18:20:55.442Z,2.63
2023-09-20T18:22:56.971Z,2.70
2023-09-20T18:24:58.667Z,2.85
2023-09-20T18:27:00.188Z,2.75
2023-09-20T18:29:01.881Z,2.53
2023-09-20T18:31:11.845Z,3.00
2023-09-20T18:33:14.962Z,2.63
2023-09-20T18:35:16.718Z,3.05
2023-09-20T18:37:18.248Z,2.90
2023-09-20T18:39:19.763Z,2.95
2023-09-20T18:41:21.356Z,2.92
2023-09-20T18:43:22.900Z,2.63
2023-09-20T18:45:24.401Z,2.08
2023-09-20T18:47:37.663Z,2.80
2023-09-20T18:49:46.144Z,2.47
2023-09-20T18:51:47.636Z,2.85
2023-09-20T18:53:49.203Z,2.40
2023-09-20T18:55:50.826Z,2.35
2023-09-20T18:57:53.543Z,2.92
2023-09-20T18:59:55.093Z,2.63
2023-09-20T19:01:56.642Z,2.83
2023-09-20T19:03:58.333Z,2.38
2023-09-20T19:06:01.447Z,2.85
2023-09-20T19:08:03.514Z,3.05
2023-09-20T19:10:06.515Z,3.08
2023-09-20T19:12:08.089Z,2.85
2023-09-20T19:14:09.732Z,3.63
2023-09-20T19:16:11.273Z,2.45
2023-09-20T19:18:12.992Z,2.22
2023-09-20T19:20:14.777Z,2.47
2023-09-20T19:22:17.665Z,2.50
2023-09-20T19:24:19.302Z,2.75
2023-09-20T19:26:20.978Z,3.13
2023-09-20T19:28:22.746Z,3.00
2023-09-20T19:30:24.250Z,2.60
2023-09-20T19:32:25.797Z,2.88
2023-09-20T19:34:27.316Z,2.50
2023-09-20T19:36:29.859Z,2.55
2023-09-20T19:38:32.993Z,2.28
2023-09-20T19:40:34.534Z,2.70
2023-09-20T19:42:36.049Z,2.00
2023-09-20T19:44:37.593Z,2.35
2023-09-20T19:46:39.102Z,2.10
2023-09-20T19:48:41.149Z,2.10
2023-09-20T19:50:43.725Z,2.17
2023-09-20T19:52:45.849Z,2.60
2023-09-20T19:54:48.821Z,2.70
2023-09-20T19:56:50.351Z,4.07
2023-09-20T19:58:51.886Z,3.25
2023-09-20T20:00:53.481Z,3.00
2023-09-20T20:02:56.358Z,2.97
2023-09-20T20:04:58.044Z,3.30
2023-09-20T20:07:03.658Z,2.88
2023-09-20T20:09:12.221Z,3.33
2023-09-20T20:11:15.125Z,2.80
2023-09-20T20:13:16.610Z,2.42
2023-09-20T20:15:18.140Z,2.90
2023-09-20T20:17:19.621Z,2.50
2023-09-20T20:19:21.118Z,2.80
2023-09-20T20:21:22.631Z,2.40
2023-09-20T20:23:24.112Z,2.20
2023-09-20T20:25:26.982Z,2.65
2023-09-20T20:27:29.868Z,2.75
2023-09-20T20:29:31.404Z,2.50
2023-09-20T20:31:32.961Z,3.20
2023-09-20T20:33:35.826Z,3.55
2023-09-20T20:35:38.143Z,3.10
2023-09-20T20:37:43.112Z,2.63
2023-09-20T20:39:44.626Z,3.00
2023-09-20T20:41:46.187Z,2.65
2023-09-20T20:43:49.260Z,2.85
2023-09-20T20:45:50.835Z,2.70
2023-09-20T20:47:54.080Z,2.92
2023-09-20T20:49:55.643Z,2.85
2023-09-20T20:51:57.166Z,2.78
2023-09-20T20:53:58.790Z,3.67
2023-09-20T20:56:00.335Z,3.78
2023-09-20T20:58:02.230Z,4.20
2023-09-20T21:00:06.530Z,4.32
2023-09-20T21:02:08.107Z,4.18
2023-09-20T21:04:09.821Z,6.05
2023-09-20T21:06:11.503Z,4.75
2023-09-20T21:08:13.868Z,5.32
2023-09-20T21:10:15.512Z,5.88
2023-09-20T21:12:17.072Z,6.00
2023-09-20T21:14:18.583Z,6.50
2023-09-20T21:16:21.548Z,5.95
2023-09-20T21:18:23.298Z,5.15
2023-09-20T21:20:25.302Z,4.82
2023-09-20T21:22:26.826Z,4.03
2023-09-20T21:24:28.345Z,3.78
2023-09-20T21:26:29.882Z,3.63
2023-09-20T21:28:31.509Z,3.25
2023-09-20T21:30:34.332Z,2.78
2023-09-20T21:32:37.366Z,3.38
2023-09-20T21:34:39.005Z,2.92
2023-09-20T21:36:40.527Z,2.33
2023-09-20T21:38:42.294Z,2.35
2023-09-20T21:40:44.092Z,2.20
2023-09-20T21:42:45.658Z,2.20
2023-09-20T21:44:47.188Z,2.25
2023-09-20T21:46:48.855Z,2.33
2023-09-20T21:48:51.863Z,2.00
2023-09-20T21:50:53.510Z,2.10
2023-09-20T21:52:56.712Z,2.25
2023-09-20T21:54:58.233Z,2.92
2023-09-20T21:56:59.781Z,2.30
2023-09-20T21:59:01.307Z,2.20
2023-09-20T22:01:03.357Z,2.25
2023-09-20T22:03:06.374Z,2.38
2023-09-20T22:05:10.334Z,2.00
2023-09-20T22:07:11.917Z,2.20
2023-09-20T22:09:13.502Z,2.13
2023-09-20T22:11:15.073Z,1.90
2023-09-20T22:13:16.925Z,2.42
2023-09-20T22:15:18.673Z,2.10
2023-09-20T22:17:20.274Z,2.30
2023-09-20T22:19:21.792Z,2.53
2023-09-20T22:21:24.712Z,2.20
2023-09-20T22:23:26.220Z,2.72
2023-09-20T22:25:27.948Z,2.58
2023-09-20T22:27:29.475Z,2.10
2023-09-20T22:29:31.011Z,2.63
2023-09-20T22:31:32.566Z,2.10
2023-09-20T22:33:34.153Z,2.95
2023-09-20T22:35:35.875Z,2.83
2023-09-20T22:37:39.150Z,3.20
2023-09-20T22:39:40.691Z,2.72
2023-09-20T22:41:42.829Z,3.05
2023-09-20T22:43:44.609Z,3.03
2023-09-20T22:45:46.103Z,2.60
2023-09-20T22:47:49.088Z,2.80
2023-09-20T22:49:50.679Z,2.50
2023-09-20T22:51:52.194Z,2.63
2023-09-20T22:53:55.100Z,2.83
2023-09-20T22:55:56.619Z,2.88
2023-09-20T22:57:58.558Z,2.60
2023-09-20T23:00:00.160Z,2.30
2023-09-20T23:02:01.758Z,2.20
2023-09-20T23:04:03.475Z,2.47
2023-09-20T23:06:05.283Z,2.90
2023-09-20T23:08:07.055Z,2.35
2023-09-20T23:10:11.069Z,2.40
2023-09-20T23:12:12.701Z,2.72
2023-09-20T23:14:14.265Z,2.50
2023-09-20T23:16:15.875Z,2.47
2023-09-20T23:18:17.568Z,2.28
2023-09-20T23:20:19.389Z,2.83
2023-09-20T23:22:20.946Z,3.00
2023-09-20T23:24:22.524Z,3.30
2023-09-20T23:26:25.372Z,2.65
2023-09-20T23:28:27.033Z,2.60
2023-09-20T23:30:32.029Z,2.90
2023-09-20T23:32:33.608Z,3.08
2023-09-20T23:34:35.162Z,3.08
2023-09-20T23:36:36.706Z,2.63
2023-09-20T23:38:38.266Z,2.53
2023-09-20T23:40:40.086Z,2.67
2023-09-20T23:42:42.975Z,2.40
2023-09-20T23:44:44.475Z,2.58
2023-09-20T23:46:46.002Z,2.47
2023-09-20T23:48:48.910Z,2.10
2023-09-20T23:51:00.426Z,2.60
2023-09-20T23:53:02.117Z,2.38
2023-09-20T23:55:04.131Z,2.92
2023-09-20T23:57:05.654Z,2.53
2023-09-20T23:59:09.235Z,2.20
